sensor_id;sensor_type;location;lat;lon;timestamp;pressure;altitude;pressure_sealevel;temperature;humidity
40592;BME280;26301;42.832;23.918;2023-07-09T00:01:38;93594.22;;;14.13;100.00
40592;BME280;26301;42.832;23.918;2023-07-09T00:04:04;93597.56;;;14.09;100.00
40592;BME280;26301;42.832;23.918;2023-07-09T00:06:31;93592.31;;;14.04;100.00
40592;BME280;26301;42.832;23.918;2023-07-09T00:08:57;93598.50;;;13.98;100.00
40592;BME280;26301;42.832;23.918;2023-07-09T00:11:23;93592.03;;;14.00;100.00
40592;BME280;26301;42.832;23.918;2023-07-09T00:13:50;93586.75;;;13.90;100.00
40592;BME280;26301;42.832;23.918;2023-07-09T00:16:24;93597.44;;;13.93;100.00
40592;BME280;26301;42.832;23.918;2023-07-09T00:18:51;93608.34;;;13.95;100.00
40592;BME280;26301;42.832;23.918;2023-07-09T00:21:21;93607.56;;;13.95;100.00
40592;BME280;26301;42.832;23.918;2023-07-09T00:23:47;93608.03;;;13.92;100.00
40592;BME280;26301;42.832;23.918;2023-07-09T00:26:17;93597.84;;;13.85;100.00
40592;BME280;26301;42.832;23.918;2023-07-09T00:28:43;93591.16;;;13.67;100.00
40592;BME280;26301;42.832;23.918;2023-07-09T00:31:15;93606.75;;;13.67;100.00
40592;BME280;26301;42.832;23.918;2023-07-09T00:33:45;93620.19;;;13.64;100.00
40592;BME280;26301;42.832;23.918;2023-07-09T00:36:41;93612.78;;;13.51;100.00
40592;BME280;26301;42.832;23.918;2023-07-09T00:39:19;93597.34;;;13.39;100.00
40592;BME280;26301;42.832;23.918;2023-07-09T00:41:46;93610.78;;;13.36;100.00
40592;BME280;26301;42.832;23.918;2023-07-09T00:44:32;93610.78;;;13.36;100.00
40592;BME280;26301;42.832;23.918;2023-07-09T00:49:46;93598.91;;;13.23;100.00
40592;BME280;26301;42.832;23.918;2023-07-09T00:52:33;93585.03;;;13.13;100.00
40592;BME280;26301;42.832;23.918;2023-07-09T00:55:12;93592.81;;;13.13;100.00
40592;BME280;26301;42.832;23.918;2023-07-09T00:57:40;93605.84;;;13.18;100.00
40592;BME280;26301;42.832;23.918;2023-07-09T01:00:11;93586.06;;;13.12;100.00
40592;BME280;26301;42.832;23.918;2023-07-09T01:02:41;93604.56;;;13.20;100.00
40592;BME280;26301;42.832;23.918;2023-07-09T01:05:12;93585.25;;;13.11;100.00
40592;BME280;26301;42.832;23.918;2023-07-09T01:07:38;93587.53;;;13.08;100.00
40592;BME280;26301;42.832;23.918;2023-07-09T01:10:05;93603.25;;;13.18;100.00
40592;BME280;26301;42.832;23.918;2023-07-09T01:12:31;93613.31;;;13.14;100.00
40592;BME280;26301;42.832;23.918;2023-07-09T01:15:00;93590.13;;;13.08;100.00
40592;BME280;26301;42.832;23.918;2023-07-09T01:17:28;93591.09;;;13.01;100.00
40592;BME280;26301;42.832;23.918;2023-07-09T01:19:55;93600.97;;;13.04;100.00
40592;BME280;26301;42.832;23.918;2023-07-09T01:22:23;93594.16;;;12.98;100.00
40592;BME280;26301;42.832;23.918;2023-07-09T01:25:05;93607.50;;;13.07;100.00
40592;BME280;26301;42.832;23.918;2023-07-09T01:27:37;93593.06;;;12.94;100.00
40592;BME280;26301;42.832;23.918;2023-07-09T01:30:11;93578.88;;;12.80;100.00
40592;BME280;26301;42.832;23.918;2023-07-09T01:32:38;93595.88;;;12.93;100.00
40592;BME280;26301;42.832;23.918;2023-07-09T01:35:06;93586.47;;;12.87;100.00
40592;BME280;26301;42.832;23.918;2023-07-09T01:37:35;93590.66;;;12.88;100.00
40592;BME280;26301;42.832;23.918;2023-07-09T01:40:02;93593.56;;;12.91;100.00
40592;BME280;26301;42.832;23.918;2023-07-09T01:42:31;93600.00;;;12.89;100.00
40592;BME280;26301;42.832;23.918;2023-07-09T01:44:57;93583.03;;;12.81;100.00
40592;BME280;26301;42.832;23.918;2023-07-09T01:47:24;93585.88;;;12.79;100.00
40592;BME280;26301;42.832;23.918;2023-07-09T01:49:51;93603.66;;;12.93;100.00
40592;BME280;26301;42.832;23.918;2023-07-09T01:52:23;93610.13;;;12.90;100.00
40592;BME280;26301;42.832;23.918;2023-07-09T01:54:53;93593.66;;;12.79;100.00
40592;BME280;26301;42.832;23.918;2023-07-09T01:57:27;93609.59;;;12.88;100.00
40592;BME280;26301;42.832;23.918;2023-07-09T02:00:05;93603.66;;;12.93;100.00
40592;BME280;26301;42.832;23.918;2023-07-09T02:02:43;93588.53;;;12.85;100.00
40592;BME280;26301;42.832;23.918;2023-07-09T02:05:10;93601.38;;;12.96;100.00
40592;BME280;26301;42.832;23.918;2023-07-09T02:07:36;93611.22;;;12.94;100.00
40592;BME280;26301;42.832;23.918;2023-07-09T02:10:03;93607.53;;;12.90;100.00
40592;BME280;26301;42.832;23.918;2023-07-09T02:12:29;93618.38;;;12.87;100.00
40592;BME280;26301;42.832;23.918;2023-07-09T02:14:56;93599.31;;;12.76;100.00
40592;BME280;26301;42.832;23.918;2023-07-09T02:17:22;93618.53;;;12.80;100.00
40592;BME280;26301;42.832;23.918;2023-07-09T02:19:48;93615.63;;;12.77;100.00
40592;BME280;26301;42.832;23.918;2023-07-09T02:22:15;93618.38;;;12.70;100.00
40592;BME280;26301;42.832;23.918;2023-07-09T02:24:41;93624.50;;;12.64;100.00
40592;BME280;26301;42.832;23.918;2023-07-09T02:27:08;93609.56;;;12.54;100.00
40592;BME280;26301;42.832;23.918;2023-07-09T02:29:36;93602.75;;;12.48;100.00
40592;BME280;26301;42.832;23.918;2023-07-09T02:32:04;93607.22;;;12.53;100.00
40592;BME280;26301;42.832;23.918;2023-07-09T02:34:31;93625.47;;;12.58;100.00
40592;BME280;26301;42.832;23.918;2023-07-09T02:36:58;93611.13;;;12.39;100.00
40592;BME280;26301;42.832;23.918;2023-07-09T02:39:25;93605.66;;;12.35;100.00
40592;BME280;26301;42.832;23.918;2023-07-09T02:41:51;93635.09;;;12.46;100.00
40592;BME280;26301;42.832;23.918;2023-07-09T02:44:18;93640.50;;;12.44;100.00
40592;BME280;26301;42.832;23.918;2023-07-09T02:46:45;93639.00;;;12.48;100.00
40592;BME280;26301;42.832;23.918;2023-07-09T02:49:13;93637.69;;;12.46;100.00
40592;BME280;26301;42.832;23.918;2023-07-09T02:51:39;93638.53;;;12.34;100.00
40592;BME280;26301;42.832;23.918;2023-07-09T02:54:06;93640.88;;;12.36;100.00
40592;BME280;26301;42.832;23.918;2023-07-09T02:56:32;93618.66;;;12.23;100.00
40592;BME280;26301;42.832;23.918;2023-07-09T02:58:59;93644.28;;;12.37;100.00
40592;BME280;26301;42.832;23.918;2023-07-09T03:01:26;93633.81;;;12.31;100.00
40592;BME280;26301;42.832;23.918;2023-07-09T03:03:55;93637.03;;;12.39;100.00
40592;BME280;26301;42.832;23.918;2023-07-09T03:06:23;93633.56;;;12.33;100.00
40592;BME280;26301;42.832;23.918;2023-07-09T03:08:49;93632.00;;;12.32;100.00
40592;BME280;26301;42.832;23.918;2023-07-09T03:11:16;93617.16;;;12.27;100.00
40592;BME280;26301;42.832;23.918;2023-07-09T03:13:43;93633.50;;;12.28;100.00
40592;BME280;26301;42.832;23.918;2023-07-09T03:16:09;93621.09;;;12.30;100.00
40592;BME280;26301;42.832;23.918;2023-07-09T03:18:39;93621.19;;;12.35;100.00
40592;BME280;26301;42.832;23.918;2023-07-09T03:21:05;93625.69;;;12.40;100.00
40592;BME280;26301;42.832;23.918;2023-07-09T03:23:32;93627.25;;;12.41;100.00
40592;BME280;26301;42.832;23.918;2023-07-09T03:25:58;93613.88;;;12.32;100.00
40592;BME280;26301;42.832;23.918;2023-07-09T03:28:26;93617.34;;;12.38;100.00
40592;BME280;26301;42.832;23.918;2023-07-09T03:30:54;93610.81;;;12.35;100.00
40592;BME280;26301;42.832;23.918;2023-07-09T03:33:22;93621.69;;;12.49;100.00
40592;BME280;26301;42.832;23.918;2023-07-09T03:35:48;93632.34;;;12.52;100.00
40592;BME280;26301;42.832;23.918;2023-07-09T03:38:13;93639.28;;;12.64;100.00
40592;BME280;26301;42.832;23.918;2023-07-09T03:40:41;93632.28;;;12.64;100.00
40592;BME280;26301;42.832;23.918;2023-07-09T03:43:08;93619.50;;;12.57;100.00
40592;BME280;26301;42.832;23.918;2023-07-09T03:45:36;93630.16;;;12.78;100.00
40592;BME280;26301;42.832;23.918;2023-07-09T03:48:02;93628.69;;;12.82;100.00
40592;BME280;26301;42.832;23.918;2023-07-09T03:50:29;93625.84;;;12.84;100.00
40592;BME280;26301;42.832;23.918;2023-07-09T03:52:55;93618.84;;;12.84;100.00
40592;BME280;26301;42.832;23.918;2023-07-09T03:55:21;93631.31;;;12.87;100.00
40592;BME280;26301;42.832;23.918;2023-07-09T03:57:47;93639.75;;;12.94;100.00
40592;BME280;26301;42.832;23.918;2023-07-09T04:00:14;93633.91;;;12.87;100.00
40592;BME280;26301;42.832;23.918;2023-07-09T04:02:41;93647.91;;;13.03;100.00
40592;BME280;26301;42.832;23.918;2023-07-09T04:05:09;93648.38;;;13.00;100.00
40592;BME280;26301;42.832;23.918;2023-07-09T04:07:36;93650.50;;;13.03;100.00
40592;BME280;26301;42.832;23.918;2023-07-09T04:10:04;93638.16;;;13.10;100.00
40592;BME280;26301;42.832;23.918;2023-07-09T04:12:30;93653.19;;;13.25;100.00
40592;BME280;26301;42.832;23.918;2023-07-09T04:14:56;93659.91;;;13.43;100.00
40592;BME280;26301;42.832;23.918;2023-07-09T04:17:22;93649.44;;;13.38;100.00
40592;BME280;26301;42.832;23.918;2023-07-09T04:19:53;93663.78;;;13.62;100.00
40592;BME280;26301;42.832;23.918;2023-07-09T04:22:19;93658.66;;;13.89;100.00
40592;BME280;26301;42.832;23.918;2023-07-09T04:24:46;93660.50;;;14.16;100.00
40592;BME280;26301;42.832;23.918;2023-07-09T04:27:12;93665.63;;;14.33;100.00
40592;BME280;26301;42.832;23.918;2023-07-09T04:29:40;93668.06;;;14.45;100.00
40592;BME280;26301;42.832;23.918;2023-07-09T04:32:08;93654.03;;;14.46;100.00
40592;BME280;26301;42.832;23.918;2023-07-09T04:34:37;93671.03;;;14.53;100.00
40592;BME280;26301;42.832;23.918;2023-07-09T04:37:06;93658.69;;;14.44;100.00
40592;BME280;26301;42.832;23.918;2023-07-09T04:39:34;93673.09;;;14.51;100.00
40592;BME280;26301;42.832;23.918;2023-07-09T04:42:01;93667.31;;;14.49;100.00
40592;BME280;26301;42.832;23.918;2023-07-09T04:44:26;93686.97;;;14.62;100.00
40592;BME280;26301;42.832;23.918;2023-07-09T04:46:52;93687.22;;;14.60;100.00
40592;BME280;26301;42.832;23.918;2023-07-09T04:49:19;93686.47;;;14.65;100.00
40592;BME280;26301;42.832;23.918;2023-07-09T04:51:45;93668.09;;;14.77;100.00
40592;BME280;26301;42.832;23.918;2023-07-09T04:54:11;93673.88;;;15.16;100.00
40592;BME280;26301;42.832;23.918;2023-07-09T04:56:39;93664.59;;;15.30;100.00
40592;BME280;26301;42.832;23.918;2023-07-09T04:59:05;93676.50;;;15.59;100.00
40592;BME280;26301;42.832;23.918;2023-07-09T05:01:31;93676.22;;;15.60;100.00
40592;BME280;26301;42.832;23.918;2023-07-09T05:03:58;93676.91;;;15.83;100.00
40592;BME280;26301;42.832;23.918;2023-07-09T05:06:24;93638.22;;;15.59;100.00
40592;BME280;26301;42.832;23.918;2023-07-09T05:08:51;93675.59;;;15.85;100.00
40592;BME280;26301;42.832;23.918;2023-07-09T05:11:17;93674.63;;;16.02;100.00
40592;BME280;26301;42.832;23.918;2023-07-09T05:13:44;93684.31;;;16.21;100.00
40592;BME280;26301;42.832;23.918;2023-07-09T05:16:10;93672.88;;;16.28;100.00
40592;BME280;26301;42.832;23.918;2023-07-09T05:18:37;93686.75;;;16.59;100.00
40592;BME280;26301;42.832;23.918;2023-07-09T05:21:03;93689.16;;;16.86;100.00
40592;BME280;26301;42.832;23.918;2023-07-09T05:23:29;93671.41;;;16.93;99.36
40592;BME280;26301;42.832;23.918;2023-07-09T05:25:57;93678.97;;;17.20;96.08
40592;BME280;26301;42.832;23.918;2023-07-09T05:28:23;93668.50;;;17.41;93.43
40592;BME280;26301;42.832;23.918;2023-07-09T05:30:49;93684.09;;;17.87;95.43
40592;BME280;26301;42.832;23.918;2023-07-09T05:33:17;93686.78;;;18.31;93.65
40592;BME280;26301;42.832;23.918;2023-07-09T05:35:46;93680.84;;;18.65;86.69
40592;BME280;26301;42.832;23.918;2023-07-09T05:38:14;93688.78;;;18.94;79.31
40592;BME280;26301;42.832;23.918;2023-07-09T05:40:41;93677.47;;;19.04;83.11
40592;BME280;26301;42.832;23.918;2023-07-09T05:43:08;93680.63;;;19.35;86.95
40592;BME280;26301;42.832;23.918;2023-07-09T05:45:34;93658.00;;;19.44;89.02
40592;BME280;26301;42.832;23.918;2023-07-09T05:48:01;93668.81;;;19.61;87.11
40592;BME280;26301;42.832;23.918;2023-07-09T05:50:28;93686.81;;;19.97;86.52
40592;BME280;26301;42.832;23.918;2023-07-09T05:52:55;93686.94;;;20.30;88.63
40592;BME280;26301;42.832;23.918;2023-07-09T05:55:21;93681.88;;;20.58;80.46
40592;BME280;26301;42.832;23.918;2023-07-09T05:57:47;93685.22;;;20.63;76.74
40592;BME280;26301;42.832;23.918;2023-07-09T06:00:16;93682.69;;;20.77;72.10
40592;BME280;26301;42.832;23.918;2023-07-09T06:02:42;93668.97;;;20.80;72.98
40592;BME280;26301;42.832;23.918;2023-07-09T06:05:08;93676.19;;;21.07;69.81
40592;BME280;26301;42.832;23.918;2023-07-09T06:07:34;93677.88;;;21.17;67.69
40592;BME280;26301;42.832;23.918;2023-07-09T06:10:02;93672.03;;;21.20;63.90
40592;BME280;26301;42.832;23.918;2023-07-09T06:12:27;93678.38;;;21.33;64.02
40592;BME280;26301;42.832;23.918;2023-07-09T06:14:54;93685.44;;;21.37;63.16
40592;BME280;26301;42.832;23.918;2023-07-09T06:17:20;93671.72;;;21.40;60.71
40592;BME280;26301;42.832;23.918;2023-07-09T06:19:48;93682.75;;;21.56;57.98
40592;BME280;26301;42.832;23.918;2023-07-09T06:22:14;93674.69;;;21.66;61.56
40592;BME280;26301;42.832;23.918;2023-07-09T06:24:44;93685.69;;;21.82;60.46
40592;BME280;26301;42.832;23.918;2023-07-09T06:27:10;93682.69;;;21.89;56.52
40592;BME280;26301;42.832;23.918;2023-07-09T06:29:36;93686.19;;;21.98;57.58
40592;BME280;26301;42.832;23.918;2023-07-09T06:32:03;93682.50;;;21.99;56.07
40592;BME280;26301;42.832;23.918;2023-07-09T06:34:29;93687.66;;;22.04;57.97
40592;BME280;26301;42.832;23.918;2023-07-09T06:40:07;93690.69;;;22.11;55.70
40592;BME280;26301;42.832;23.918;2023-07-09T06:42:35;93672.75;;;22.00;58.82
40592;BME280;26301;42.832;23.918;2023-07-09T06:45:02;93681.03;;;22.07;59.14
40592;BME280;26301;42.832;23.918;2023-07-09T06:47:30;93687.19;;;22.30;57.68
40592;BME280;26301;42.832;23.918;2023-07-09T06:49:56;93687.28;;;22.39;57.65
40592;BME280;26301;42.832;23.918;2023-07-09T06:52:22;93682.66;;;22.44;62.56
40592;BME280;26301;42.832;23.918;2023-07-09T06:54:48;93683.06;;;22.51;55.76
40592;BME280;26301;42.832;23.918;2023-07-09T06:57:16;93678.94;;;22.59;61.85
40592;BME280;26301;42.832;23.918;2023-07-09T06:59:42;93682.88;;;22.84;59.17
40592;BME280;26301;42.832;23.918;2023-07-09T07:02:08;93664.91;;;22.86;56.58
40592;BME280;26301;42.832;23.918;2023-07-09T07:04:34;93671.69;;;23.01;63.44
40592;BME280;26301;42.832;23.918;2023-07-09T07:07:01;93684.22;;;23.18;56.91
40592;BME280;26301;42.832;23.918;2023-07-09T07:09:28;93685.53;;;23.29;61.82
40592;BME280;26301;42.832;23.918;2023-07-09T07:11:57;93687.19;;;23.47;55.94
40592;BME280;26301;42.832;23.918;2023-07-09T07:14:23;93668.59;;;23.52;55.08
40592;BME280;26301;42.832;23.918;2023-07-09T07:16:49;93680.09;;;23.57;52.05
40592;BME280;26301;42.832;23.918;2023-07-09T07:19:15;93679.78;;;23.58;57.23
40592;BME280;26301;42.832;23.918;2023-07-09T07:21:41;93673.13;;;23.61;53.37
40592;BME280;26301;42.832;23.918;2023-07-09T07:24:07;93662.94;;;23.68;53.58
40592;BME280;26301;42.832;23.918;2023-07-09T07:26:33;93665.66;;;23.85;54.09
40592;BME280;26301;42.832;23.918;2023-07-09T07:29:00;93659.94;;;23.83;55.50
40592;BME280;26301;42.832;23.918;2023-07-09T07:31:26;93666.50;;;24.03;53.59
40592;BME280;26301;42.832;23.918;2023-07-09T07:33:52;93662.81;;;24.04;52.30
40592;BME280;26301;42.832;23.918;2023-07-09T07:36:18;93667.16;;;24.17;54.42
40592;BME280;26301;42.832;23.918;2023-07-09T07:38:43;93658.03;;;24.24;53.59
40592;BME280;26301;42.832;23.918;2023-07-09T07:41:09;93673.91;;;24.41;56.97
40592;BME280;26301;42.832;23.918;2023-07-09T07:43:36;93672.06;;;24.50;54.34
40592;BME280;26301;42.832;23.918;2023-07-09T07:46:02;93668.34;;;24.60;50.56
40592;BME280;26301;42.832;23.918;2023-07-09T07:48:28;93668.84;;;24.71;53.42
40592;BME280;26301;42.832;23.918;2023-07-09T07:51:01;93661.97;;;24.70;50.14
40592;BME280;26301;42.832;23.918;2023-07-09T07:53:28;93668.22;;;24.82;51.86
40592;BME280;26301;42.832;23.918;2023-07-09T07:55:57;93652.81;;;24.84;50.94
40592;BME280;26301;42.832;23.918;2023-07-09T07:58:23;93663.53;;;24.97;54.65
40592;BME280;26301;42.832;23.918;2023-07-09T08:00:49;93665.72;;;25.03;50.37
40592;BME280;26301;42.832;23.918;2023-07-09T08:03:16;93649.41;;;25.01;50.47
40592;BME280;26301;42.832;23.918;2023-07-09T08:05:47;93666.19;;;25.14;49.95
40592;BME280;26301;42.832;23.918;2023-07-09T08:08:14;93662.63;;;25.27;49.78
40592;BME280;26301;42.832;23.918;2023-07-09T08:10:40;93670.50;;;25.45;48.64
40592;BME280;26301;42.832;23.918;2023-07-09T08:13:07;93656.34;;;25.49;46.25
40592;BME280;26301;42.832;23.918;2023-07-09T08:15:33;93664.25;;;25.58;46.57
40592;BME280;26301;42.832;23.918;2023-07-09T08:18:00;93654.72;;;25.66;46.88
40592;BME280;26301;42.832;23.918;2023-07-09T08:20:26;93658.88;;;25.84;47.32
40592;BME280;26301;42.832;23.918;2023-07-09T08:22:53;93632.13;;;25.77;45.22
40592;BME280;26301;42.832;23.918;2023-07-09T08:25:18;93651.06;;;25.96;44.50
40592;BME280;26301;42.832;23.918;2023-07-09T08:27:44;93647.44;;;26.01;48.05
40592;BME280;26301;42.832;23.918;2023-07-09T08:30:11;93641.78;;;26.11;46.75
40592;BME280;26301;42.832;23.918;2023-07-09T08:32:38;93651.97;;;26.30;48.45
40592;BME280;26301;42.832;23.918;2023-07-09T08:35:04;93651.47;;;26.37;44.60
40592;BME280;26301;42.832;23.918;2023-07-09T08:37:31;93634.38;;;26.26;44.69
40592;BME280;26301;42.832;23.918;2023-07-09T08:39:57;93644.19;;;26.25;43.75
40592;BME280;26301;42.832;23.918;2023-07-09T08:42:31;93647.81;;;26.20;45.74
40592;BME280;26301;42.832;23.918;2023-07-09T08:50:29;93650.78;;;25.89;46.05
40592;BME280;26301;42.832;23.918;2023-07-09T08:52:58;93659.34;;;25.86;44.18
40592;BME280;26301;42.832;23.918;2023-07-09T08:55:33;93638.94;;;25.78;45.03
40592;BME280;26301;42.832;23.918;2023-07-09T08:58:29;93654.19;;;25.90;46.35
40592;BME280;26301;42.832;23.918;2023-07-09T09:01:02;93648.47;;;25.88;47.52
40592;BME280;26301;42.832;23.918;2023-07-09T09:03:36;93658.03;;;26.01;45.12
40592;BME280;26301;42.832;23.918;2023-07-09T09:06:16;93655.34;;;26.10;44.43
40592;BME280;26301;42.832;23.918;2023-07-09T09:09:01;93660.13;;;26.16;44.86
40592;BME280;26301;42.832;23.918;2023-07-09T09:14:30;93661.84;;;26.51;46.85
40592;BME280;26301;42.832;23.918;2023-07-09T09:16:58;93661.56;;;26.64;43.97
40592;BME280;26301;42.832;23.918;2023-07-09T09:19:53;93654.53;;;26.68;43.45
40592;BME280;26301;42.832;23.918;2023-07-09T09:22:25;93654.41;;;26.65;43.78
40592;BME280;26301;42.832;23.918;2023-07-09T09:25:16;93650.41;;;26.59;43.25
40592;BME280;26301;42.832;23.918;2023-07-09T09:27:44;93656.16;;;26.82;43.63
40592;BME280;26301;42.832;23.918;2023-07-09T09:30:23;93661.69;;;26.89;42.43
40592;BME280;26301;42.832;23.918;2023-07-09T09:33:22;93660.09;;;26.97;44.22
40592;BME280;26301;42.832;23.918;2023-07-09T09:35:48;93654.66;;;26.93;41.27
40592;BME280;26301;42.832;23.918;2023-07-09T09:38:21;93641.53;;;26.97;48.12
40592;BME280;26301;42.832;23.918;2023-07-09T09:40:48;93656.78;;;27.21;46.25
40592;BME280;26301;42.832;23.918;2023-07-09T09:43:19;93662.25;;;27.36;44.55
40592;BME280;26301;42.832;23.918;2023-07-09T09:45:48;93653.75;;;27.55;45.41
40592;BME280;26301;42.832;23.918;2023-07-09T09:48:31;93656.69;;;27.75;44.52
40592;BME280;26301;42.832;23.918;2023-07-09T09:50:58;93660.72;;;27.93;43.30
40592;BME280;26301;42.832;23.918;2023-07-09T09:53:29;93654.84;;;28.12;41.21
40592;BME280;26301;42.832;23.918;2023-07-09T09:55:56;93646.78;;;28.09;39.99
40592;BME280;26301;42.832;23.918;2023-07-09T09:58:29;93640.91;;;28.03;42.21
40592;BME280;26301;42.832;23.918;2023-07-09T10:00:59;93661.94;;;27.96;38.70
40592;BME280;26301;42.832;23.918;2023-07-09T10:03:35;93657.28;;;27.80;43.26
40592;BME280;26301;42.832;23.918;2023-07-09T10:11:55;93653.34;;;27.53;37.62
40592;BME280;26301;42.832;23.918;2023-07-09T10:14:46;93645.34;;;27.87;39.39
40592;BME280;26301;42.832;23.918;2023-07-09T10:20:17;93632.72;;;28.08;42.60
40592;BME280;26301;42.832;23.918;2023-07-09T10:23:22;93640.78;;;27.87;38.95
40592;BME280;26301;42.832;23.918;2023-07-09T10:39:50;93633.47;;;28.33;39.68
40592;BME280;26301;42.832;23.918;2023-07-09T10:42:40;93622.84;;;28.45;38.95
40592;BME280;26301;42.832;23.918;2023-07-09T10:45:12;93634.50;;;28.16;39.46
40592;BME280;26301;42.832;23.918;2023-07-09T10:47:46;93607.97;;;28.04;40.96
40592;BME280;26301;42.832;23.918;2023-07-09T10:50:27;93629.94;;;28.29;39.75
40592;BME280;26301;42.832;23.918;2023-07-09T10:52:58;93614.34;;;28.15;39.81
40592;BME280;26301;42.832;23.918;2023-07-09T10:55:33;93625.28;;;28.51;39.99
40592;BME280;26301;42.832;23.918;2023-07-09T10:58:31;93636.03;;;27.93;40.13
40592;BME280;26301;42.832;23.918;2023-07-09T11:00:59;93631.38;;;28.26;40.11
40592;BME280;26301;42.832;23.918;2023-07-09T11:06:04;93631.25;;;28.47;41.63
40592;BME280;26301;42.832;23.918;2023-07-09T11:08:38;93632.22;;;28.67;39.96
40592;BME280;26301;42.832;23.918;2023-07-09T11:11:14;93632.84;;;28.77;39.40
40592;BME280;26301;42.832;23.918;2023-07-09T11:13:53;93637.25;;;28.44;40.47
40592;BME280;26301;42.832;23.918;2023-07-09T11:16:35;93627.28;;;28.29;38.77
40592;BME280;26301;42.832;23.918;2023-07-09T11:19:05;93631.94;;;28.44;39.70
40592;BME280;26301;42.832;23.918;2023-07-09T11:21:33;93624.41;;;28.34;40.59
40592;BME280;26301;42.832;23.918;2023-07-09T11:24:00;93625.97;;;28.23;43.40
40592;BME280;26301;42.832;23.918;2023-07-09T11:26:31;93623.53;;;28.42;44.60
40592;BME280;26301;42.832;23.918;2023-07-09T11:31:38;93623.28;;;28.47;41.74
40592;BME280;26301;42.832;23.918;2023-07-09T11:37:00;93629.47;;;28.39;40.06
40592;BME280;26301;42.832;23.918;2023-07-09T11:42:03;93628.81;;;28.30;42.45
40592;BME280;26301;42.832;23.918;2023-07-09T11:44:31;93626.19;;;28.18;41.84
40592;BME280;26301;42.832;23.918;2023-07-09T11:47:00;93633.72;;;27.79;40.77
40592;BME280;26301;42.832;23.918;2023-07-09T11:49:39;93635.59;;;28.15;40.93
40592;BME280;26301;42.832;23.918;2023-07-09T11:52:10;93571.47;;;28.01;39.11
40592;BME280;26301;42.832;23.918;2023-07-09T11:54:37;93629.19;;;28.41;41.56
40592;BME280;26301;42.832;23.918;2023-07-09T11:57:11;93607.13;;;28.53;41.38
40592;BME280;26301;42.832;23.918;2023-07-09T11:59:42;93617.59;;;28.74;43.48
40592;BME280;26301;42.832;23.918;2023-07-09T12:02:19;93624.75;;;28.73;41.02
40592;BME280;26301;42.832;23.918;2023-07-09T12:04:50;93571.28;;;28.46;39.60
40592;BME280;26301;42.832;23.918;2023-07-09T12:07:17;93614.56;;;28.75;39.56
40592;BME280;26301;42.832;23.918;2023-07-09T12:09:49;93602.03;;;28.47;42.21
40592;BME280;26301;42.832;23.918;2023-07-09T12:12:21;93618.63;;;28.57;39.84
40592;BME280;26301;42.832;23.918;2023-07-09T12:14:49;93616.22;;;28.27;39.93
40592;BME280;26301;42.832;23.918;2023-07-09T12:17:17;93610.25;;;28.42;41.37
40592;BME280;26301;42.832;23.918;2023-07-09T12:19:45;93596.38;;;28.61;44.11
40592;BME280;26301;42.832;23.918;2023-07-09T12:22:20;93611.59;;;28.77;43.00
40592;BME280;26301;42.832;23.918;2023-07-09T12:24:49;93607.91;;;28.81;41.33
40592;BME280;26301;42.832;23.918;2023-07-09T12:27:24;93607.69;;;28.46;40.06
40592;BME280;26301;42.832;23.918;2023-07-09T12:29:53;93589.09;;;28.34;39.60
40592;BME280;26301;42.832;23.918;2023-07-09T12:32:20;93612.06;;;28.66;40.52
40592;BME280;26301;42.832;23.918;2023-07-09T12:34:53;93599.44;;;28.63;41.18
40592;BME280;26301;42.832;23.918;2023-07-09T12:37:21;93611.69;;;28.80;39.76
40592;BME280;26301;42.832;23.918;2023-07-09T12:39:50;93610.91;;;28.80;43.54
40592;BME280;26301;42.832;23.918;2023-07-09T12:42:25;93615.78;;;28.78;42.60
40592;BME280;26301;42.832;23.918;2023-07-09T12:44:55;93613.44;;;28.88;43.41
40592;BME280;26301;42.832;23.918;2023-07-09T12:47:24;93613.84;;;29.03;44.42
40592;BME280;26301;42.832;23.918;2023-07-09T12:49:51;93609.25;;;28.75;40.57
40592;BME280;26301;42.832;23.918;2023-07-09T12:52:21;93601.09;;;28.96;39.55
40592;BME280;26301;42.832;23.918;2023-07-09T12:55:01;93591.47;;;29.04;38.71
40592;BME280;26301;42.832;23.918;2023-07-09T12:57:28;93593.09;;;29.08;40.48
40592;BME280;26301;42.832;23.918;2023-07-09T12:59:56;93576.72;;;29.06;41.20
40592;BME280;26301;42.832;23.918;2023-07-09T13:02:26;93595.88;;;29.28;40.98
40592;BME280;26301;42.832;23.918;2023-07-09T13:05:17;93595.72;;;29.36;40.38
40592;BME280;26301;42.832;23.918;2023-07-09T13:07:51;93592.78;;;29.26;40.14
40592;BME280;26301;42.832;23.918;2023-07-09T13:10:24;93607.22;;;29.25;41.01
40592;BME280;26301;42.832;23.918;2023-07-09T13:13:03;93590.44;;;29.08;38.96
40592;BME280;26301;42.832;23.918;2023-07-09T13:15:44;93589.16;;;29.18;37.20
40592;BME280;26301;42.832;23.918;2023-07-09T13:18:13;93597.72;;;28.83;40.17
40592;BME280;26301;42.832;23.918;2023-07-09T13:20:42;93595.06;;;28.83;39.47
40592;BME280;26301;42.832;23.918;2023-07-09T13:23:17;93599.06;;;28.77;40.22
40592;BME280;26301;42.832;23.918;2023-07-09T13:25:44;93592.25;;;28.64;39.38
40592;BME280;26301;42.832;23.918;2023-07-09T13:28:21;93598.63;;;28.22;39.98
40592;BME280;26301;42.832;23.918;2023-07-09T13:30:50;93606.72;;;28.14;41.02
40592;BME280;26301;42.832;23.918;2023-07-09T13:33:17;93609.41;;;28.01;42.42
40592;BME280;26301;42.832;23.918;2023-07-09T13:36:06;93598.50;;;27.45;43.04
40592;BME280;26301;42.832;23.918;2023-07-09T13:38:32;93583.81;;;27.72;41.86
40592;BME280;26301;42.832;23.918;2023-07-09T13:41:01;93599.50;;;27.53;41.93
40592;BME280;26301;42.832;23.918;2023-07-09T13:43:35;93604.69;;;27.74;43.13
40592;BME280;26301;42.832;23.918;2023-07-09T13:46:03;93603.75;;;28.03;41.68